createdAt,value
2017-11-11T00:00:34.703Z,4.22
2017-11-11T00:01:34.600Z,4.15
2017-11-11T00:02:34.580Z,4.12
2017-11-11T00:03:35.007Z,4.01
2017-11-11T00:04:34.423Z,3.98
2017-11-11T00:05:34.467Z,3.80
2017-11-11T00:06:34.284Z,3.75
2017-11-11T00:07:34.235Z,3.67
2017-11-11T00:08:34.318Z,3.68
2017-11-11T00:09:34.222Z,3.50
2017-11-11T00:10:34.224Z,3.61
2017-11-11T00:11:34.121Z,3.70
2017-11-11T00:12:34.147Z,3.58
2017-11-11T00:13:34.021Z,3.68
2017-11-11T00:14:34.008Z,3.71
2017-11-11T00:15:33.959Z,3.70
2017-11-11T00:16:33.918Z,3.76
2017-11-11T00:17:34.419Z,3.68
2017-11-11T00:18:34.229Z,3.75
2017-11-11T00:19:33.835Z,3.82
2017-11-11T00:20:33.763Z,3.83
2017-11-11T00:21:34.189Z,3.85
2017-11-11T00:22:33.666Z,3.64
2017-11-11T00:23:33.606Z,3.71
2017-11-11T00:24:34.094Z,3.71
2017-11-11T00:25:34.001Z,3.70
2017-11-11T00:26:33.478Z,3.72
2017-11-11T00:27:33.458Z,3.70
2017-11-11T00:28:33.349Z,3.75
2017-11-11T00:29:33.285Z,3.82
2017-11-11T00:30:33.300Z,3.85
2017-11-11T00:31:33.277Z,3.71
2017-11-11T00:32:33.131Z,3.82
2017-11-11T00:33:33.148Z,4.01
2017-11-11T00:34:33.262Z,3.88
2017-11-11T00:35:33.561Z,3.96
2017-11-11T00:36:33.500Z,3.92
2017-11-11T00:37:32.977Z,3.83
2017-11-11T00:38:32.902Z,3.94
2017-11-11T00:39:33.405Z,3.82
2017-11-11T00:40:32.863Z,3.97
2017-11-11T00:41:32.780Z,4.01
2017-11-11T00:42:33.159Z,4.07
2017-11-11T00:43:32.983Z,4.01
2017-11-11T00:44:32.671Z,4.00
2017-11-11T00:45:32.570Z,4.15
2017-11-11T00:46:33.583Z,4.01
2017-11-11T00:47:33.060Z,4.00
2017-11-11T00:48:33.139Z,4.01
2017-11-11T00:49:34.900Z,3.97
2017-11-11T00:50:35.074Z,3.89
2017-11-11T00:51:34.351Z,3.97
2017-11-11T00:52:36.089Z,3.76
2017-11-11T00:53:34.143Z,3.88
2017-11-11T00:54:36.972Z,4.01
2017-11-11T00:55:34.344Z,3.94
2017-11-11T00:56:35.150Z,3.80
2017-11-11T00:57:34.561Z,3.83
2017-11-11T00:58:34.407Z,3.97
2017-11-11T00:59:35.428Z,3.96
2017-11-11T01:00:32.682Z,3.85
2017-11-11T01:01:34.659Z,3.68
2017-11-11T01:02:34.228Z,3.75
2017-11-11T01:03:33.853Z,3.67
2017-11-11T01:04:34.488Z,3.62
2017-11-11T01:05:33.679Z,3.53
2017-11-11T01:06:34.401Z,3.46
2017-11-11T01:07:34.387Z,3.60
2017-11-11T01:08:35.846Z,3.53
2017-11-11T01:09:35.373Z,3.72
2017-11-11T01:10:34.424Z,3.83
2017-11-11T01:11:35.421Z,3.76
2017-11-11T01:12:32.052Z,3.80
2017-11-11T01:13:31.950Z,3.67
2017-11-11T01:14:33.782Z,3.60
2017-11-11T01:15:34.088Z,3.64
2017-11-11T01:16:33.586Z,3.58
2017-11-11T01:17:34.923Z,3.43
2017-11-11T01:18:31.096Z,3.49
2017-11-11T01:19:31.581Z,3.39
2017-11-11T01:20:34.423Z,3.57
2017-11-11T01:21:33.955Z,3.78
2017-11-11T01:22:33.635Z,3.71
2017-11-11T01:23:34.320Z,3.53
2017-11-11T01:24:33.989Z,3.64
2017-11-11T01:25:34.406Z,3.58
2017-11-11T01:26:38.545Z,3.54
2017-11-11T01:27:33.138Z,3.52
2017-11-11T01:28:33.863Z,3.58
2017-11-11T01:29:32.102Z,3.78
2017-11-11T01:30:32.873Z,3.71
2017-11-11T01:31:35.285Z,3.76
2017-11-11T01:32:32.158Z,3.98
2017-11-11T01:33:35.520Z,3.97
2017-11-11T01:34:33.577Z,4.14
2017-11-11T01:35:34.447Z,4.12
2017-11-11T01:36:32.457Z,4.12
2017-11-11T01:37:37.018Z,4.15
2017-11-11T01:38:31.044Z,4.06
2017-11-11T01:39:34.861Z,4.22
2017-11-11T01:40:33.409Z,4.37
2017-11-11T01:41:31.924Z,4.29
2017-11-11T01:42:32.060Z,4.42
2017-11-11T01:43:31.673Z,4.39
2017-11-11T01:44:32.242Z,4.57
2017-11-11T01:45:31.578Z,4.58
2017-11-11T01:46:32.205Z,4.52
2017-11-11T01:47:32.322Z,4.34
2017-11-11T01:48:34.933Z,4.29
2017-11-11T01:49:33.394Z,4.28
2017-11-11T01:50:31.576Z,4.16
2017-11-11T01:51:36.135Z,4.29
2017-11-11T01:52:33.370Z,4.26
2017-11-11T01:53:34.266Z,4.26
2017-11-11T01:54:32.588Z,4.21
2017-11-11T01:55:32.933Z,4.18
2017-11-11T01:56:33.611Z,4.12
2017-11-11T01:57:37.397Z,3.90
2017-11-11T01:58:31.650Z,3.98
2017-11-11T01:59:32.419Z,4.04
2017-11-11T02:00:31.089Z,3.92
2017-11-11T02:01:34.000Z,3.94
2017-11-11T02:02:31.431Z,3.82
2017-11-11T02:03:32.435Z,3.75
2017-11-11T02:04:33.294Z,3.85
2017-11-11T02:05:31.174Z,4.01
2017-11-11T02:06:31.059Z,4.12
2017-11-11T02:07:33.395Z,4.14
2017-11-11T02:08:32.125Z,3.98
2017-11-11T02:09:36.951Z,4.01
2017-11-11T02:10:32.905Z,3.92
2017-11-11T02:11:34.838Z,3.79
2017-11-11T02:12:29.046Z,3.79
2017-11-11T02:13:29.214Z,3.94
2017-11-11T02:14:28.506Z,4.03
2017-11-11T02:15:29.508Z,3.86
2017-11-11T02:16:28.437Z,3.80
2017-11-11T02:17:28.796Z,3.82
2017-11-11T02:18:28.302Z,3.86
2017-11-11T02:19:28.275Z,3.72
2017-11-11T02:20:28.250Z,3.71
2017-11-11T02:21:28.189Z,3.82
2017-11-11T02:22:28.397Z,3.79
2017-11-11T02:23:28.024Z,3.82
2017-11-11T02:24:28.054Z,3.96
2017-11-11T02:25:27.998Z,3.94
2017-11-11T02:26:28.445Z,3.82
2017-11-11T02:27:27.942Z,3.80
2017-11-11T02:28:27.893Z,3.82
2017-11-11T02:29:27.809Z,3.68
2017-11-11T02:30:27.810Z,3.75
2017-11-11T02:31:27.739Z,3.76
2017-11-11T02:32:27.697Z,3.80
2017-11-11T02:33:27.575Z,3.85
2017-11-11T02:34:27.619Z,3.80
2017-11-11T02:35:27.546Z,3.80
2017-11-11T02:36:27.529Z,3.76
2017-11-11T02:37:27.480Z,3.85
2017-11-11T02:38:27.905Z,3.83
2017-11-11T02:39:28.283Z,3.82
2017-11-11T02:40:27.298Z,3.78
2017-11-11T02:41:27.276Z,3.90
2017-11-11T02:42:27.237Z,4.01
2017-11-11T02:43:27.677Z,4.03
2017-11-11T02:44:27.606Z,4.03
2017-11-11T02:45:27.073Z,3.89
2017-11-11T02:46:27.018Z,3.97
2017-11-11T02:47:27.499Z,3.79
2017-11-11T02:48:26.971Z,3.96
2017-11-11T02:49:26.897Z,3.96
2017-11-11T02:50:27.309Z,3.94
2017-11-11T02:51:27.302Z,3.98
2017-11-11T02:52:26.744Z,4.00
2017-11-11T02:53:26.667Z,4.16
2017-11-11T02:54:26.677Z,4.15
2017-11-11T02:55:26.668Z,4.21
2017-11-11T02:56:26.592Z,4.07
2017-11-11T02:57:26.506Z,4.12
2017-11-11T02:58:27.010Z,3.98
2017-11-11T02:59:26.625Z,4.00
2017-11-11T03:00:26.434Z,3.96
2017-11-11T03:01:26.385Z,3.97
2017-11-11T03:02:26.291Z,3.98
2017-11-11T03:03:26.270Z,3.86
2017-11-11T03:04:26.225Z,3.85
2017-11-11T03:05:26.147Z,3.85
2017-11-11T03:06:26.138Z,3.79
2017-11-11T03:07:26.059Z,3.68
2017-11-11T03:08:26.070Z,3.75
2017-11-11T03:09:26.009Z,3.67
2017-11-11T03:10:25.943Z,3.62
2017-11-11T03:11:26.019Z,3.54
2017-11-11T03:12:25.867Z,3.62
2017-11-11T03:13:25.809Z,3.53
2017-11-11T03:14:26.294Z,3.65
2017-11-11T03:15:26.233Z,3.64
2017-11-11T03:16:25.689Z,3.58
2017-11-11T03:17:26.175Z,3.49
2017-11-11T03:18:25.603Z,3.47
2017-11-11T03:19:25.565Z,3.64
2017-11-11T03:20:25.478Z,3.82
2017-11-11T03:21:25.464Z,3.88
2017-11-11T03:22:25.409Z,3.92
2017-11-11T03:23:25.338Z,4.15
2017-11-11T03:24:25.269Z,4.01
2017-11-11T03:25:25.794Z,4.15
2017-11-11T03:26:25.192Z,4.14
2017-11-11T03:27:25.681Z,4.36
2017-11-11T03:28:25.137Z,4.34
2017-11-11T03:29:25.033Z,4.33
2017-11-11T03:30:25.051Z,4.28
2017-11-11T03:31:25.003Z,4.32
2017-11-11T03:32:24.981Z,4.33
2017-11-11T03:33:25.432Z,4.26
2017-11-11T03:34:24.823Z,4.33
2017-11-11T03:35:24.831Z,4.37
2017-11-11T03:36:24.756Z,4.39
2017-11-11T03:37:25.703Z,4.43
2017-11-11T03:38:24.624Z,4.42
2017-11-11T03:39:24.599Z,4.54
2017-11-11T03:40:24.561Z,4.58
2017-11-11T03:41:24.543Z,4.69
2017-11-11T03:42:24.453Z,4.52
2017-11-11T03:43:24.427Z,4.65
2017-11-11T03:44:24.390Z,4.72
2017-11-11T03:45:24.380Z,4.69
2017-11-11T03:46:24.298Z,4.69
2017-11-11T03:47:24.778Z,4.77
2017-11-11T03:48:24.236Z,4.72
2017-11-11T03:49:25.157Z,4.61
2017-11-11T03:50:24.089Z,4.79
2017-11-11T03:51:24.038Z,4.83
2017-11-11T03:52:25.742Z,4.86
2017-11-11T03:53:25.013Z,4.83
2017-11-11T03:54:24.692Z,4.77
2017-11-11T03:55:23.873Z,4.80
2017-11-11T03:56:23.829Z,4.75
2017-11-11T03:57:23.806Z,4.73
2017-11-11T03:58:24.262Z,4.77
2017-11-11T03:59:23.737Z,4.72
2017-11-11T04:00:23.662Z,4.79
2017-11-11T04:01:23.615Z,4.75
2017-11-11T04:02:23.732Z,4.88
2017-11-11T04:03:23.742Z,4.91
2017-11-11T04:04:23.498Z,4.83
2017-11-11T04:05:23.388Z,4.84
2017-11-11T04:06:23.400Z,4.84
2017-11-11T04:07:23.368Z,4.94
2017-11-11T04:08:23.823Z,5.05
2017-11-11T04:09:23.302Z,4.94
2017-11-11T04:10:23.181Z,4.89
2017-11-11T04:11:23.189Z,4.75
2017-11-11T04:12:23.133Z,4.76
2017-11-11T04:13:23.083Z,4.94
2017-11-11T04:14:23.545Z,4.98
2017-11-11T04:15:23.000Z,4.95
2017-11-11T04:16:22.916Z,4.98
2017-11-11T04:17:22.855Z,4.92
2017-11-11T04:18:22.793Z,4.89
2017-11-11T04:19:22.820Z,4.88
2017-11-11T04:20:22.758Z,4.91
2017-11-11T04:21:22.723Z,4.96
2017-11-11T04:22:23.148Z,4.95
2017-11-11T04:23:22.626Z,4.96
2017-11-11T04:24:22.583Z,4.92
2017-11-11T04:25:23.002Z,4.84
2017-11-11T04:26:22.469Z,5.02
2017-11-11T04:27:22.453Z,4.92
2017-11-11T04:28:22.442Z,5.01
2017-11-11T04:29:22.387Z,5.07
2017-11-11T04:30:22.825Z,5.02
2017-11-11T04:31:22.319Z,4.99
2017-11-11T04:32:22.276Z,5.01
2017-11-11T04:33:22.724Z,5.02
2017-11-11T04:34:22.072Z,5.04
2017-11-11T04:35:22.082Z,5.02
2017-11-11T04:36:22.090Z,4.99
2017-11-11T04:37:22.022Z,5.02
2017-11-11T04:38:21.987Z,4.92
2017-11-11T04:39:21.917Z,5.02
2017-11-11T04:40:22.394Z,4.98
2017-11-11T04:41:21.799Z,5.02
2017-11-11T04:42:22.283Z,4.95
2017-11-11T04:43:21.748Z,5.01
2017-11-11T04:44:21.705Z,5.02
2017-11-11T04:45:21.608Z,5.01
2017-11-11T04:46:21.576Z,4.99
2017-11-11T04:47:21.504Z,5.01
2017-11-11T04:48:21.511Z,4.99
2017-11-11T04:49:21.953Z,5.02
2017-11-11T04:50:21.941Z,4.99
2017-11-11T04:51:21.396Z,4.92
2017-11-11T04:52:21.863Z,4.89
2017-11-11T04:53:21.300Z,4.94
2017-11-11T04:54:21.275Z,4.92
2017-11-11T04:55:21.189Z,4.89
2017-11-11T04:56:21.110Z,4.94
2017-11-11T04:57:21.063Z,4.83
2017-11-11T04:58:21.096Z,4.76
2017-11-11T04:59:21.478Z,4.67
2017-11-11T05:00:21.485Z,4.88
2017-11-11T05:01:21.332Z,4.76
2017-11-11T05:02:20.679Z,4.70
2017-11-11T05:03:20.791Z,4.80
2017-11-11T05:04:21.295Z,4.76
2017-11-11T05:05:20.783Z,4.73
2017-11-11T05:06:20.721Z,4.79
2017-11-11T05:07:20.677Z,4.83
2017-11-11T05:08:20.621Z,4.72
2017-11-11T05:09:20.564Z,4.86
2017-11-11T05:10:20.539Z,4.80
2017-11-11T05:11:20.422Z,4.89
2017-11-11T05:12:20.421Z,4.84
2017-11-11T05:13:20.405Z,4.80
2017-11-11T05:14:20.311Z,4.84
2017-11-11T05:15:20.290Z,4.80
2017-11-11T05:16:20.258Z,4.79
2017-11-11T05:17:20.225Z,4.86
2017-11-11T05:18:20.180Z,4.76
2017-11-11T05:19:20.128Z,4.83
2017-11-11T05:20:20.058Z,4.79
2017-11-11T05:21:20.027Z,4.67
2017-11-11T05:22:20.007Z,4.73
2017-11-11T05:23:19.944Z,4.73
2017-11-11T05:24:19.927Z,4.80
2017-11-11T05:25:19.847Z,4.86
2017-11-11T05:26:19.863Z,4.83
2017-11-11T05:27:19.762Z,4.84
2017-11-11T05:28:19.709Z,4.88
2017-11-11T05:29:19.674Z,4.77
2017-11-11T05:30:19.308Z,4.92
2017-11-11T05:31:19.114Z,4.91
2017-11-11T05:32:19.077Z,4.94
2017-11-11T05:33:19.022Z,4.89
2017-11-11T05:34:19.005Z,4.92
2017-11-11T05:35:18.940Z,4.95
2017-11-11T05:36:18.887Z,4.95
2017-11-11T05:37:18.867Z,4.94
2017-11-11T05:38:18.799Z,4.94
2017-11-11T05:39:18.814Z,4.88
2017-11-11T05:40:18.750Z,4.88
2017-11-11T05:41:18.685Z,4.86
2017-11-11T05:42:18.680Z,4.77
2017-11-11T05:43:18.562Z,4.86
2017-11-11T05:44:18.543Z,4.98
2017-11-11T05:45:18.474Z,4.98
2017-11-11T05:46:18.436Z,4.92
2017-11-11T05:47:18.388Z,4.98
2017-11-11T05:48:18.353Z,5.04
2017-11-11T05:49:18.318Z,5.07
2017-11-11T05:50:18.284Z,5.01
2017-11-11T05:51:18.212Z,5.02
2017-11-11T05:52:18.186Z,4.96
2017-11-11T05:53:18.124Z,4.96
2017-11-11T05:54:18.157Z,4.89
2017-11-11T05:55:18.031Z,4.86
2017-11-11T05:56:18.025Z,4.88
2017-11-11T05:57:17.946Z,4.86
2017-11-11T05:58:17.906Z,4.79
2017-11-11T05:59:17.850Z,4.64
2017-11-11T06:00:17.802Z,4.72
2017-11-11T06:01:17.761Z,4.65
2017-11-11T06:02:17.741Z,4.65
2017-11-11T06:03:17.673Z,4.50
2017-11-11T06:04:17.646Z,4.54
2017-11-11T06:05:17.582Z,4.51
2017-11-11T06:06:17.541Z,4.50
2017-11-11T06:07:17.504Z,4.39
2017-11-11T06:08:17.442Z,4.39
2017-11-11T06:09:17.403Z,4.37
2017-11-11T06:10:17.369Z,4.42
2017-11-11T06:11:17.332Z,4.36
2017-11-11T06:12:17.287Z,4.36
2017-11-11T06:13:17.222Z,4.42
2017-11-11T06:14:17.179Z,4.42
2017-11-11T06:15:17.146Z,4.40
2017-11-11T06:16:17.065Z,4.37
2017-11-11T06:17:17.044Z,4.39
2017-11-11T06:18:17.064Z,4.29
2017-11-11T06:19:16.948Z,4.24
2017-11-11T06:20:16.938Z,4.33
2017-11-11T06:21:17.738Z,4.29
2017-11-11T06:22:16.833Z,4.25
2017-11-11T06:23:16.789Z,4.15
2017-11-11T06:24:16.774Z,4.15
2017-11-11T06:25:16.689Z,4.18
2017-11-11T06:26:16.633Z,4.18
2017-11-11T06:27:16.613Z,4.15
2017-11-11T06:28:16.577Z,4.14
2017-11-11T06:29:16.514Z,4.18
2017-11-11T06:30:17.257Z,4.28
2017-11-11T06:31:16.415Z,4.24
2017-11-11T06:32:16.360Z,4.19
2017-11-11T06:33:16.330Z,4.24
2017-11-11T06:34:16.330Z,4.21
2017-11-11T06:35:16.242Z,4.32
2017-11-11T06:36:16.263Z,4.25
2017-11-11T06:37:16.139Z,4.33
2017-11-11T06:38:16.090Z,4.33
2017-11-11T06:39:16.060Z,4.40
2017-11-11T06:40:16.017Z,4.43
2017-11-11T06:41:15.966Z,4.34
2017-11-11T06:42:15.918Z,4.33
2017-11-11T06:43:15.865Z,4.46
2017-11-11T06:44:15.832Z,4.39
2017-11-11T06:45:15.787Z,4.39
2017-11-11T06:46:15.737Z,4.39
2017-11-11T06:47:15.689Z,4.43
2017-11-11T06:48:15.661Z,4.39
2017-11-11T06:49:15.604Z,4.42
2017-11-11T06:50:15.565Z,4.44
2017-11-11T06:51:15.521Z,4.50
2017-11-11T06:52:15.473Z,4.67
2017-11-11T06:53:15.421Z,4.72
2017-11-11T06:54:16.234Z,4.88
2017-11-11T06:55:15.336Z,4.99
2017-11-11T06:56:15.291Z,5.01
2017-11-11T06:57:15.371Z,5.01
2017-11-11T06:58:15.266Z,5.01
2017-11-11T06:59:15.152Z,5.14
2017-11-11T07:00:15.104Z,5.13
2017-11-11T07:01:15.063Z,5.10
2017-11-11T07:02:15.020Z,5.30
2017-11-11T07:03:15.010Z,5.31
2017-11-11T07:04:15.017Z,5.35
2017-11-11T07:05:14.925Z,5.22
2017-11-11T07:06:14.844Z,5.30
2017-11-11T07:07:14.823Z,5.30
2017-11-11T07:08:14.753Z,5.32
2017-11-11T07:09:16.322Z,5.35
2017-11-11T07:10:14.656Z,5.46
2017-11-11T07:11:14.623Z,5.52
2017-11-11T07:12:14.587Z,5.46
2017-11-11T07:13:14.531Z,5.45
2017-11-11T07:14:14.477Z,5.49
2017-11-11T07:15:14.440Z,5.53
2017-11-11T07:16:14.427Z,5.57
2017-11-11T07:17:14.344Z,5.56
2017-11-11T07:18:14.305Z,5.55
2017-11-11T07:19:14.268Z,5.59
2017-11-11T07:20:14.243Z,5.59
2017-11-11T07:21:14.185Z,5.56
2017-11-11T07:22:14.129Z,5.55
2017-11-11T07:23:14.089Z,5.56
2017-11-11T07:24:14.077Z,5.66
2017-11-11T07:25:14.046Z,5.68
2017-11-11T07:26:13.964Z,5.59
2017-11-11T07:27:13.903Z,5.67
2017-11-11T07:28:13.862Z,5.57
2017-11-11T07:29:13.810Z,5.57
2017-11-11T07:30:13.772Z,5.66
2017-11-11T07:31:13.722Z,5.68
2017-11-11T07:32:13.689Z,5.67
2017-11-11T07:33:13.641Z,5.57
2017-11-11T07:34:14.284Z,5.57
2017-11-11T07:35:13.575Z,5.59
2017-11-11T07:36:13.503Z,5.57
2017-11-11T07:37:13.482Z,5.64
2017-11-11T07:38:13.417Z,5.55
2017-11-11T07:39:13.392Z,5.56
2017-11-11T07:40:13.333Z,5.60
2017-11-11T07:41:13.290Z,5.63
2017-11-11T07:42:13.243Z,5.71
2017-11-11T07:43:13.191Z,5.74
2017-11-11T07:44:13.156Z,5.73
2017-11-11T07:45:13.120Z,5.73
2017-11-11T07:46:13.059Z,5.77
2017-11-11T07:47:13.017Z,5.73
2017-11-11T07:48:12.974Z,5.83
2017-11-11T07:49:12.935Z,5.83
2017-11-11T07:50:12.904Z,5.88
2017-11-11T07:51:12.848Z,5.77
2017-11-11T07:52:12.862Z,5.91
2017-11-11T07:53:12.767Z,5.96
2017-11-11T07:54:12.767Z,5.91
2017-11-11T07:55:12.686Z,5.96
2017-11-11T07:56:12.623Z,6.11
2017-11-11T07:57:12.577Z,5.98
2017-11-11T07:58:12.551Z,6.03
2017-11-11T07:59:12.494Z,6.03
2017-11-11T08:00:12.523Z,6.01
2017-11-11T08:01:12.410Z,6.00
2017-11-11T08:02:12.404Z,5.98
2017-11-11T08:03:12.349Z,6.14
2017-11-11T08:04:12.307Z,6.29
2017-11-11T08:05:12.233Z,6.50
2017-11-11T08:06:12.196Z,6.58
2017-11-11T08:07:12.156Z,6.76
2017-11-11T08:08:12.110Z,7.26
2017-11-11T08:09:12.069Z,7.81
2017-11-11T08:10:12.038Z,8.00
2017-11-11T08:11:11.980Z,7.81
2017-11-11T08:12:12.148Z,7.56
2017-11-11T08:13:11.914Z,7.34
2017-11-11T08:14:11.858Z,7.69
2017-11-11T08:15:11.951Z,7.92
2017-11-11T08:16:11.783Z,7.99
2017-11-11T08:17:11.748Z,8.20
2017-11-11T08:18:11.721Z,8.00
2017-11-11T08:19:11.645Z,8.11
2017-11-11T08:20:11.643Z,7.89
2017-11-11T08:21:11.585Z,7.62
2017-11-11T08:22:11.525Z,7.67
2017-11-11T08:23:11.498Z,7.74
2017-11-11T08:24:11.430Z,7.75
2017-11-11T08:25:11.414Z,8.07
2017-11-11T08:26:11.368Z,8.45
2017-11-11T08:27:11.323Z,8.69
2017-11-11T08:28:11.364Z,8.35
2017-11-11T08:29:13.857Z,8.47
2017-11-11T08:30:11.241Z,8.25
2017-11-11T08:31:11.349Z,8.02
2017-11-11T08:32:11.139Z,7.81
2017-11-11T08:33:11.227Z,8.11
2017-11-11T08:34:11.048Z,7.84
2017-11-11T08:35:11.028Z,7.77
2017-11-11T08:36:10.981Z,7.55
2017-11-11T08:37:10.933Z,7.56
2017-11-11T08:38:10.881Z,7.31
2017-11-11T08:39:10.941Z,7.53
2017-11-11T08:40:10.932Z,7.52
2017-11-11T08:41:10.818Z,7.44
2017-11-11T08:42:10.740Z,7.24
2017-11-11T08:43:10.900Z,7.29
2017-11-11T08:44:10.653Z,7.27
2017-11-11T08:45:10.674Z,7.23
2017-11-11T08:46:10.576Z,7.23
2017-11-11T08:47:10.554Z,7.41
2017-11-11T08:48:10.493Z,7.40
2017-11-11T08:49:10.504Z,7.41
2017-11-11T08:50:10.420Z,7.44
2017-11-11T08:51:10.439Z,7.55
2017-11-11T08:52:10.407Z,7.82
2017-11-11T08:53:12.998Z,7.63
2017-11-11T08:54:10.378Z,7.59
2017-11-11T08:55:10.229Z,7.85
2017-11-11T08:56:10.178Z,7.93
2017-11-11T08:57:19.100Z,7.94
2017-11-11T08:59:04.331Z,8.35
2017-11-11T09:00:04.213Z,8.47
2017-11-11T09:01:58.373Z,7.97
2017-11-11T09:02:57.782Z,8.04
2017-11-11T09:04:52.438Z,7.84
2017-11-11T09:05:52.300Z,7.71
2017-11-11T09:07:45.479Z,7.32
2017-11-11T09:08:45.442Z,7.32
2017-11-11T09:10:40.642Z,7.29
2017-11-11T09:11:39.993Z,7.29
2017-11-11T09:13:33.610Z,7.29
2017-11-11T09:14:33.588Z,7.44
2017-11-11T09:16:29.107Z,7.42
2017-11-11T09:17:29.537Z,7.44
2017-11-11T09:19:28.257Z,7.50
2017-11-11T09:20:28.701Z,7.45
2017-11-11T09:22:27.182Z,7.45
2017-11-11T09:23:26.270Z,7.59
2017-11-11T09:25:19.431Z,7.50
2017-11-11T09:28:01.545Z,7.74
2017-11-11T09:30:33.015Z,7.89
2017-11-11T09:31:33.003Z,7.72
2017-11-11T09:33:31.689Z,7.97
2017-11-11T09:34:30.767Z,7.96
2017-11-11T09:36:24.343Z,7.85
2017-11-11T09:37:24.333Z,7.60
2017-11-11T09:39:19.138Z,7.59
2017-11-11T09:40:17.318Z,7.47
2017-11-11T09:42:10.460Z,7.59
2017-11-11T09:43:10.388Z,7.58
2017-11-11T09:45:04.129Z,7.56
2017-11-11T09:46:03.499Z,7.47
2017-11-11T09:47:59.271Z,7.59
2017-11-11T09:51:04.107Z,7.69
2017-11-11T09:51:41.390Z,7.96
2017-11-11T09:53:35.066Z,7.96
2017-11-11T09:54:35.484Z,8.04
2017-11-11T09:56:40.568Z,7.99
2017-11-11T09:57:29.144Z,8.03
2017-11-11T09:59:26.290Z,8.20
2017-11-11T10:00:26.173Z,7.99
2017-11-11T10:02:20.123Z,7.63
2017-11-11T10:03:20.041Z,7.59
2017-11-11T10:05:13.192Z,7.59
2017-11-11T10:06:22.069Z,7.58
2017-11-11T10:08:08.966Z,7.72
2017-11-11T10:09:08.922Z,7.72
2017-11-11T10:11:02.457Z,7.71
2017-11-11T10:12:02.482Z,7.85
2017-11-11T10:13:56.113Z,7.96
2017-11-11T10:14:56.014Z,8.17
2017-11-11T10:16:49.116Z,8.32
2017-11-11T10:17:49.609Z,9.48
2017-11-11T10:19:42.619Z,9.52
2017-11-11T10:20:42.134Z,9.13
2017-11-11T10:22:35.763Z,8.99
2017-11-11T10:23:35.704Z,10.09
2017-11-11T10:25:51.793Z,9.50
2017-11-11T10:26:51.709Z,9.91
2017-11-11T10:28:45.304Z,9.21
2017-11-11T10:29:45.263Z,8.97
2017-11-11T10:31:38.349Z,9.71
2017-11-11T10:32:38.814Z,9.49
2017-11-11T10:34:31.437Z,9.09
2017-11-11T10:35:31.337Z,9.28
2017-11-11T10:37:29.018Z,9.38
2017-11-11T10:38:28.907Z,9.09
2017-11-11T10:40:22.660Z,8.81
2017-11-11T10:43:33.004Z,8.45
2017-11-11T10:44:33.300Z,8.37
2017-11-11T10:45:32.840Z,8.21
2017-11-11T10:47:29.121Z,8.12
2017-11-11T10:48:39.946Z,8.39
2017-11-11T10:50:21.245Z,8.68
2017-11-11T10:51:21.133Z,8.62
2017-11-11T10:57:29.013Z,8.50
2017-11-11T10:58:27.480Z,8.50
2017-11-11T11:00:20.624Z,8.29
2017-11-11T11:01:29.213Z,8.36
2017-11-11T11:05:49.551Z,8.22
2017-11-11T11:06:51.859Z,8.35
2017-11-11T11:07:49.417Z,8.11
2017-11-11T11:09:02.552Z,8.00
2017-11-11T11:11:05.925Z,7.97
2017-11-11T11:16:01.786Z,7.96
2017-11-11T11:20:20.701Z,7.94
2017-11-11T11:21:08.719Z,7.94
2017-11-11T11:24:26.249Z,7.87
2017-11-11T11:28:37.573Z,7.87
2017-11-11T11:30:17.882Z,7.81
2017-11-11T11:31:34.132Z,7.87
2017-11-11T11:34:26.936Z,7.92
2017-11-11T11:35:27.002Z,7.82
2017-11-11T11:37:20.879Z,7.81
2017-11-11T11:38:21.258Z,7.59
2017-11-11T11:41:32.516Z,7.81
2017-11-11T11:44:36.769Z,7.93
2017-11-11T11:46:18.076Z,8.02
2017-11-11T11:47:40.504Z,7.96
2017-11-11T11:48:40.494Z,8.08
2017-11-11T11:50:45.804Z,8.02
2017-11-11T11:51:44.640Z,7.89
2017-11-11T11:53:41.124Z,8.00
2017-11-11T11:56:24.313Z,8.08
2017-11-11T12:00:08.262Z,8.14
2017-11-11T12:01:15.081Z,8.18
2017-11-11T12:04:06.162Z,8.00
2017-11-11T12:06:57.900Z,8.20
2017-11-11T12:08:23.800Z,8.17
2017-11-11T12:09:50.636Z,8.12
2017-11-11T12:11:17.943Z,8.11
2017-11-11T12:13:08.048Z,8.04
2017-11-11T12:16:02.874Z,8.12
2017-11-11T12:17:10.220Z,8.15
2017-11-11T12:21:06.812Z,8.15
2017-11-11T12:30:11.425Z,8.00
2017-11-11T12:37:19.249Z,8.35
2017-11-11T12:38:19.202Z,8.29
2017-11-11T12:40:35.407Z,8.03
2017-11-11T12:41:45.774Z,7.97
2017-11-11T12:43:29.651Z,8.15
2017-11-11T12:44:29.598Z,8.04
2017-11-11T12:46:26.497Z,8.12
2017-11-11T12:47:26.250Z,7.94
2017-11-11T12:49:53.077Z,7.92
2017-11-11T12:50:52.965Z,7.79
2017-11-11T12:52:45.707Z,7.87
2017-11-11T12:58:28.190Z,7.59
2017-11-11T13:04:30.934Z,7.45
2017-11-11T13:07:56.964Z,7.40
2017-11-11T13:12:08.203Z,7.35
2017-11-11T13:15:39.625Z,7.17
2017-11-11T13:16:39.598Z,7.15
2017-11-11T13:20:36.206Z,7.15
2017-11-11T13:21:33.647Z,7.17
2017-11-11T13:23:27.881Z,7.08
2017-11-11T13:24:26.754Z,7.12
2017-11-11T13:26:20.406Z,7.05
2017-11-11T13:27:20.375Z,6.98
2017-11-11T13:29:13.768Z,6.84
2017-11-11T13:30:13.348Z,6.86
2017-11-11T13:32:11.949Z,6.95
2017-11-11T13:33:11.786Z,6.90
2017-11-11T13:35:06.411Z,6.72
2017-11-11T13:36:06.850Z,6.77
2017-11-11T13:37:59.501Z,6.61
2017-11-11T13:38:59.369Z,6.63
2017-11-11T13:40:53.034Z,6.54
2017-11-11T13:41:52.466Z,6.58
2017-11-11T13:43:45.621Z,6.51
2017-11-11T13:44:45.560Z,6.54
2017-11-11T13:46:38.645Z,6.56
2017-11-11T13:47:38.543Z,6.43
2017-11-11T13:49:31.716Z,6.40
2017-11-11T13:50:31.444Z,6.43
2017-11-11T13:52:25.002Z,6.50
2017-11-11T13:53:24.706Z,6.43
2017-11-11T13:55:18.158Z,6.41
2017-11-11T13:56:17.562Z,6.38
2017-11-11T13:58:10.865Z,6.38
2017-11-11T13:59:11.218Z,6.40
2017-11-11T14:01:03.996Z,6.38
2017-11-11T14:02:03.859Z,6.38
2017-11-11T14:03:56.947Z,6.26
2017-11-11T14:04:56.862Z,6.35
2017-11-11T14:06:50.179Z,6.32
2017-11-11T14:07:49.864Z,6.43
2017-11-11T14:09:43.191Z,6.22
2017-11-11T14:10:43.010Z,6.29
2017-11-11T14:12:36.348Z,6.14
2017-11-11T14:13:36.140Z,6.28
2017-11-11T14:15:29.582Z,6.14
2017-11-11T14:16:29.250Z,6.16
2017-11-11T14:18:22.964Z,6.14
2017-11-11T14:19:22.880Z,6.16
2017-11-11T14:21:29.255Z,6.16
2017-11-11T14:22:29.042Z,6.13
2017-11-11T14:24:22.480Z,6.04
2017-11-11T14:25:22.202Z,6.06
2017-11-11T14:27:16.635Z,5.98
2017-11-11T14:28:15.862Z,6.04
2017-11-11T14:30:10.515Z,6.01
2017-11-11T14:31:10.403Z,6.11
2017-11-11T14:33:04.072Z,6.01
2017-11-11T14:34:04.466Z,6.09
2017-11-11T14:35:57.145Z,6.04
2017-11-11T14:36:57.325Z,6.06
2017-11-11T14:38:51.660Z,6.01
2017-11-11T14:39:51.575Z,6.07
2017-11-11T14:41:45.035Z,6.01
2017-11-11T14:42:44.556Z,6.03
2017-11-11T14:44:37.822Z,5.93
2017-11-11T14:45:37.670Z,5.93
2017-11-11T14:47:31.390Z,5.91
2017-11-11T14:48:30.680Z,5.89
2017-11-11T14:50:23.903Z,5.78
2017-11-11T14:51:23.778Z,5.86
2017-11-11T14:53:16.929Z,5.86
2017-11-11T14:54:16.899Z,5.92
2017-11-11T14:56:10.027Z,5.77
2017-11-11T14:57:09.910Z,5.86
2017-11-11T14:59:03.112Z,5.71
2017-11-11T15:00:02.835Z,5.77
2017-11-11T15:01:56.094Z,5.75
2017-11-11T15:02:56.001Z,5.71
2017-11-11T15:04:49.226Z,5.78
2017-11-11T15:05:49.094Z,5.70
2017-11-11T15:07:42.713Z,5.68
2017-11-11T15:08:42.644Z,5.75
2017-11-11T15:10:48.021Z,5.73
2017-11-11T15:11:47.859Z,5.64
2017-11-11T15:13:41.602Z,5.68
2017-11-11T15:14:40.957Z,5.67
2017-11-11T15:16:34.212Z,5.70
2017-11-11T15:17:33.971Z,5.64
2017-11-11T15:19:27.616Z,5.66
2017-11-11T15:20:27.046Z,5.66
2017-11-11T15:22:20.245Z,5.59
2017-11-11T15:23:20.119Z,5.60
2017-11-11T15:25:13.321Z,5.63
2017-11-11T15:26:13.164Z,5.60
2017-11-11T15:28:06.312Z,5.63
2017-11-11T15:29:06.200Z,5.60
2017-11-11T15:30:59.423Z,5.66
2017-11-11T15:31:59.237Z,5.57
2017-11-11T15:33:52.467Z,5.55
2017-11-11T15:34:52.380Z,5.56
2017-11-11T15:36:45.498Z,5.49
2017-11-11T15:37:45.336Z,5.57
2017-11-11T15:39:38.644Z,5.57
2017-11-11T15:40:38.358Z,5.43
2017-11-11T15:42:32.327Z,5.45
2017-11-11T15:43:31.579Z,5.46
2017-11-11T15:45:24.694Z,5.46
2017-11-11T15:46:24.619Z,5.45
2017-11-11T15:48:17.726Z,5.46
2017-11-11T15:49:17.782Z,5.46
2017-11-11T15:51:10.802Z,5.48
2017-11-11T15:52:10.653Z,5.49
2017-11-11T15:54:04.369Z,5.45
2017-11-11T15:55:03.775Z,5.46
2017-11-11T15:56:56.936Z,5.37
2017-11-11T15:57:56.865Z,5.34
2017-11-11T15:59:49.966Z,5.43
2017-11-11T16:00:49.885Z,5.43
2017-11-11T16:02:43.046Z,5.38
2017-11-11T16:03:42.993Z,5.35
2017-11-11T16:05:36.578Z,5.45
2017-11-11T16:06:35.968Z,5.38
2017-11-11T16:08:29.106Z,5.34
2017-11-11T16:09:29.101Z,5.34
2017-11-11T16:11:22.136Z,5.35
2017-11-11T16:12:22.396Z,5.35
2017-11-11T16:14:15.303Z,5.43
2017-11-11T16:15:15.246Z,5.45
2017-11-11T16:17:08.274Z,5.34
2017-11-11T16:18:08.257Z,5.40
2017-11-11T16:20:01.355Z,5.45
2017-11-11T16:21:01.301Z,5.35
2017-11-11T16:22:54.351Z,5.38
2017-11-11T16:23:54.213Z,5.32